Time;durP1;ratioP1;P1;durP2;ratioP2;P2;SDS_P1;SDS_P2;PMS_P1;PMS_P2;Temp;Humidity;BMP_temperature;BMP_pressure;BME280_temperature;BME280_humidity;BME280_pressure;Samples;Min_cycle;Max_cycle;Signal;HPM_P1;HPM_P2
2023/05/05 00:00:50;;;;;;;;;;;;;;;14.27;72.08;96534.00;5047163;28;19969;-71
2023/05/05 00:03:18;;;;;;;;;;;;;;;14.24;71.63;96523.13;5047427;28;19983;-77
2023/05/05 00:05:45;;;;;;;;;;;;;;;14.18;72.88;96524.88;5046999;28;20124;-77
2023/05/05 00:08:10;;;;;;;;;;;;;;;14.12;73.05;96526.63;5047359;28;19965;-75
2023/05/05 00:10:36;;;;;;;;;;;;;;;14.06;72.85;96522.31;5047033;28;19952;-75
2023/05/05 00:13:02;;;;;;;;;;;;;;;14.01;72.80;96520.38;5046979;28;19956;-75
2023/05/05 00:15:28;;;;;;;;;;;;;;;13.97;73.05;96529.81;5047184;28;19957;-76
2023/05/05 00:17:54;;;;;;;;;;;;;;;13.93;73.67;96530.53;5047031;28;19965;-76
2023/05/05 00:20:20;;;;;;;;;;;;;;;13.90;73.83;96528.34;5046511;28;19981;-77
2023/05/05 00:22:46;;;;;;;;;;;;;;;13.85;75.45;96534.34;5047056;28;19953;-76
2023/05/05 00:25:11;;;;;;;;;;;;;;;13.84;74.39;96540.66;5047011;28;19956;-75
2023/05/05 00:27:37;;;;;;;;;;;;;;;13.81;75.52;96543.75;5046440;28;19944;-76
2023/05/05 00:30:04;;;;;;;;;;;;;;;13.79;74.29;96541.34;5046427;28;20265;-77
2023/05/05 00:32:30;;;;;;;;;;;;;;;13.75;74.69;96542.06;5046651;28;19956;-75
2023/05/05 00:34:55;;;;;;;;;;;;;;;13.73;75.00;96538.84;5046980;28;19954;-71
2023/05/05 00:37:21;;;;;;;;;;;;;;;13.70;75.63;96536.69;5046467;28;19991;-71
2023/05/05 00:39:47;;;;;;;;;;;;;;;13.68;74.59;96536.13;5046399;28;19976;-71
2023/05/05 00:42:13;;;;;;;;;;;;;;;13.65;75.77;96540.03;5046378;28;20022;-71
2023/05/05 00:44:40;;;;;;;;;;;;;;;13.61;75.80;96538.91;5046474;28;20010;-71
2023/05/05 00:47:10;;;;;;;;;;;;;;;13.59;76.26;96544.41;5046567;28;19957;-71
2023/05/05 00:49:36;;;;;;;;;;;;;;;13.57;75.74;96535.13;5046468;28;19954;-71
2023/05/05 00:52:02;;;;;;;;;;;;;;;13.54;75.75;96539.06;5046485;28;19961;-70
2023/05/05 00:54:28;;;;;;;;;;;;;;;13.53;76.43;96537.44;5045680;28;19962;-71
2023/05/05 00:56:54;;;;;;;;;;;;;;;13.49;76.87;96538.94;5045961;28;20019;-71
2023/05/05 00:59:20;;;;;;;;;;;;;;;13.47;76.69;96529.66;5046078;28;19951;-71
2023/05/05 01:01:46;;;;;;;;;;;;;;;13.44;76.21;96525.69;5045834;28;19975;-71
2023/05/05 01:04:12;;;;;;;;;;;;;;;13.40;77.49;96532.44;5046252;28;19958;-71
2023/05/05 01:06:52;;;;;;;;;;;;;;;13.37;76.90;96533.69;5046396;28;19954;-71
2023/05/05 01:09:37;;;;;;;;;;;;;;;13.34;76.76;96528.91;5045827;28;19950;-72
2023/05/05 01:12:03;;;;;;;;;;;;;;;13.31;76.92;96531.19;5045979;28;19956;-76
2023/05/05 01:14:39;;;;;;;;;;;;;;;13.29;77.56;96530.63;5046029;28;19959;-72
2023/05/05 01:17:11;;;;;;;;;;;;;;;13.25;77.66;96532.91;5045848;28;20148;-72
2023/05/05 01:19:56;;;;;;;;;;;;;;;13.22;77.89;96536.00;5045991;28;19957;-72
2023/05/05 01:22:25;;;;;;;;;;;;;;;13.18;77.51;96538.28;5045459;28;20140;-74
2023/05/05 01:25:10;;;;;;;;;;;;;;;13.17;77.58;96530.63;5045580;28;20137;-72
2023/05/05 01:27:58;;;;;;;;;;;;;;;13.14;78.48;96531.06;5045648;28;19953;-72
2023/05/05 01:30:33;;;;;;;;;;;;;;;13.12;78.60;96526.06;5045773;28;20133;-72
2023/05/05 01:33:02;;;;;;;;;;;;;;;13.10;78.47;96527.31;5045748;28;20113;-72
2023/05/05 01:35:30;;;;;;;;;;;;;;;13.08;78.80;96521.47;5045441;28;19955;-76
2023/05/05 01:38:04;;;;;;;;;;;;;;;13.05;79.12;96530.63;5044088;28;19958;-76
2023/05/05 01:40:32;;;;;;;;;;;;;;;13.03;79.31;96532.69;5044274;28;20155;-78
2023/05/05 01:42:59;;;;;;;;;;;;;;;13.03;79.17;96539.81;5045296;28;20129;-76
2023/05/05 01:45:27;;;;;;;;;;;;;;;13.02;79.92;96533.75;5045234;28;19970;-75
2023/05/05 01:47:55;;;;;;;;;;;;;;;13.02;79.68;96539.00;5045427;28;19950;-76
2023/05/05 01:50:21;;;;;;;;;;;;;;;12.98;79.43;96549.19;5045287;28;19956;-71
2023/05/05 01:52:48;;;;;;;;;;;;;;;12.96;79.81;96547.84;5045364;28;19976;-70
2023/05/05 01:55:16;;;;;;;;;;;;;;;12.92;80.14;96547.47;5045192;28;19960;-71
2023/05/05 01:57:44;;;;;;;;;;;;;;;12.88;79.94;96543.72;5044783;28;19941;-71
2023/05/05 02:00:10;;;;;;;;;;;;;;;12.88;80.43;96558.69;5045392;28;19974;-72
2023/05/05 02:02:37;;;;;;;;;;;;;;;12.86;80.76;96544.97;5044871;28;20154;-72
2023/05/05 02:05:05;;;;;;;;;;;;;;;12.84;81.03;96558.34;5044840;28;19961;-72
2023/05/05 02:07:32;;;;;;;;;;;;;;;12.84;80.90;96557.56;5044840;28;20242;-82
2023/05/05 02:09:58;;;;;;;;;;;;;;;12.84;81.14;96552.28;5044775;28;20243;-72
2023/05/05 02:12:25;;;;;;;;;;;;;;;12.85;81.80;96557.34;5044761;28;19955;-71
2023/05/05 02:14:51;;;;;;;;;;;;;;;12.85;82.29;96559.16;5044815;28;19963;-72
2023/05/05 02:17:18;;;;;;;;;;;;;;;12.85;81.41;96553.88;5044723;28;19960;-71
2023/05/05 02:19:44;;;;;;;;;;;;;;;12.86;82.04;96553.66;5044876;28;20228;-72
2023/05/05 02:22:11;;;;;;;;;;;;;;;12.86;82.45;96568.66;5044787;28;19965;-72
2023/05/05 02:24:37;;;;;;;;;;;;;;;12.86;81.85;96566.81;5044280;28;19945;-71
2023/05/05 02:27:06;;;;;;;;;;;;;;;12.87;82.44;96565.81;5044801;28;19981;-81
2023/05/05 02:29:38;;;;;;;;;;;;;;;12.89;82.88;96568.19;5044709;28;20223;-81
2023/05/05 02:32:13;;;;;;;;;;;;;;;12.86;82.83;96569.44;5044537;28;19957;-81
2023/05/05 02:34:40;;;;;;;;;;;;;;;12.85;82.50;96562.59;5044587;28;19955;-81
2023/05/05 02:37:08;;;;;;;;;;;;;;;12.84;82.78;96560.97;5044484;28;19955;-81
2023/05/05 02:39:37;;;;;;;;;;;;;;;12.84;83.90;96557.56;5044508;28;19961;-81
2023/05/05 02:42:03;;;;;;;;;;;;;;;12.83;83.34;96554.13;5044411;28;19968;-81
2023/05/05 02:44:31;;;;;;;;;;;;;;;12.82;83.07;96557.78;5044646;28;19952;-70
2023/05/05 02:46:57;;;;;;;;;;;;;;;12.82;83.07;96559.63;5044624;28;20232;-80
2023/05/05 02:49:23;;;;;;;;;;;;;;;12.83;83.57;96569.09;5044512;28;20145;-80
2023/05/05 02:51:49;;;;;;;;;;;;;;;12.84;83.54;96571.50;5044688;28;19957;-85
2023/05/05 02:54:15;;;;;;;;;;;;;;;12.83;83.75;96569.91;5044701;28;19960;-85
2023/05/05 02:56:43;;;;;;;;;;;;;;;12.83;84.42;96563.84;5044804;28;20203;-85
2023/05/05 02:59:27;;;;;;;;;;;;;;;12.82;84.26;96573.56;5044619;28;19963;-85
2023/05/05 03:01:58;;;;;;;;;;;;;;;12.81;84.22;96566.72;5044541;28;19967;-72
2023/05/05 03:04:26;;;;;;;;;;;;;;;12.80;85.31;96579.06;5044146;28;19957;-80
2023/05/05 03:06:55;;;;;;;;;;;;;;;12.81;85.12;96579.88;5044284;28;20212;-71
2023/05/05 03:09:53;;;;;;;;;;;;;;;12.78;85.62;96572.41;5043530;28;19953;-71
2023/05/05 03:12:21;;;;;;;;;;;;;;;12.77;85.55;96574.25;5021474;28;19963;-70
2023/05/05 03:14:48;;;;;;;;;;;;;;;12.75;84.56;96568.41;5043941;28;19948;-70
2023/05/05 03:17:16;;;;;;;;;;;;;;;12.75;85.81;96571.06;5046012;28;19964;-71
2023/05/05 03:19:43;;;;;;;;;;;;;;;12.74;86.24;96569.44;5047957;28;19959;-71
2023/05/05 03:22:08;;;;;;;;;;;;;;;12.74;86.67;96569.44;5047990;28;19965;-76
2023/05/05 03:24:34;;;;;;;;;;;;;;;12.73;86.52;96567.06;5047516;28;19960;-71
2023/05/05 03:27:01;;;;;;;;;;;;;;;12.73;87.11;96569.69;5046925;28;20254;-71
2023/05/05 03:29:28;;;;;;;;;;;;;;;12.73;87.33;96574.94;5048061;28;20147;-71
2023/05/05 03:31:54;;;;;;;;;;;;;;;12.73;86.76;96561.78;5048055;28;19960;-71
2023/05/05 03:34:20;;;;;;;;;;;;;;;12.75;86.64;96571.06;5047890;28;20037;-70
2023/05/05 03:36:46;;;;;;;;;;;;;;;12.76;86.43;96559.47;5047940;28;19995;-69
2023/05/05 03:39:12;;;;;;;;;;;;;;;12.77;86.32;96555.84;5048007;28;19957;-81
2023/05/05 03:41:38;;;;;;;;;;;;;;;12.80;86.69;96560.63;5047784;28;20037;-84
2023/05/05 03:44:03;;;;;;;;;;;;;;;12.80;87.37;96567.72;5047431;28;19965;-72
2023/05/05 03:46:29;;;;;;;;;;;;;;;12.81;87.15;96561.47;5047534;28;19977;-71
2023/05/05 03:48:58;;;;;;;;;;;;;;;12.81;87.97;96556.19;5047847;28;20126;-72
2023/05/05 03:51:24;;;;;;;;;;;;;;;12.85;87.14;96561.78;5047658;28;19988;-71
2023/05/05 03:53:50;;;;;;;;;;;;;;;12.88;87.79;96571.88;5047035;28;19958;-71
2023/05/05 03:56:16;;;;;;;;;;;;;;;12.90;87.88;96573.22;5047583;28;20252;-72
2023/05/05 03:58:41;;;;;;;;;;;;;;;12.92;88.97;96573.00;5047581;28;19955;-71
2023/05/05 04:01:07;;;;;;;;;;;;;;;12.94;87.82;96570.94;5047428;28;20014;-70
2023/05/05 04:03:33;;;;;;;;;;;;;;;12.95;87.26;96567.28;5048161;28;19971;-71
2023/05/05 04:05:59;;;;;;;;;;;;;;;12.98;87.18;96570.25;5047129;28;19943;-69
2023/05/05 04:08:25;;;;;;;;;;;;;;;12.99;87.38;96573.69;5047517;28;19960;-68
2023/05/05 04:10:51;;;;;;;;;;;;;;;13.00;87.40;96575.28;5047474;28;20217;-69
2023/05/05 04:13:17;;;;;;;;;;;;;;;13.00;88.03;96583.19;5046827;28;19953;-70
2023/05/05 04:15:44;;;;;;;;;;;;;;;13.00;87.74;96586.63;5047223;28;19990;-70
2023/05/05 04:18:10;;;;;;;;;;;;;;;13.01;87.70;96576.88;5047078;28;20142;-86
2023/05/05 04:20:35;;;;;;;;;;;;;;;13.02;87.99;96578.50;5046960;28;19977;-71
2023/05/05 04:23:01;;;;;;;;;;;;;;;13.04;87.52;96578.25;5046580;28;20135;-71
2023/05/05 04:25:27;;;;;;;;;;;;;;;13.02;88.05;96581.13;5047016;28;20272;-71
2023/05/05 04:27:53;;;;;;;;;;;;;;;13.03;88.92;96582.72;5046012;28;20244;-71
2023/05/05 04:30:19;;;;;;;;;;;;;;;13.04;89.07;96583.53;5046766;28;20092;-71
2023/05/05 04:32:45;;;;;;;;;;;;;;;13.05;88.70;96593.03;5046909;28;20027;-71
2023/05/05 04:35:11;;;;;;;;;;;;;;;13.07;89.05;96593.59;5046401;28;20228;-71
2023/05/05 04:37:36;;;;;;;;;;;;;;;13.07;89.32;96594.41;5047106;28;20143;-71
2023/05/05 04:40:02;;;;;;;;;;;;;;;13.08;88.86;96593.38;5046942;28;20121;-72
2023/05/05 04:42:29;;;;;;;;;;;;;;;13.09;89.43;96591.53;5046090;28;19962;-71
2023/05/05 04:44:55;;;;;;;;;;;;;;;13.11;89.22;96594.75;5046721;28;19951;-71
2023/05/05 04:47:21;;;;;;;;;;;;;;;13.10;88.98;96591.31;5046459;28;19999;-71
2023/05/05 04:49:46;;;;;;;;;;;;;;;13.13;89.06;96601.38;5046359;28;20260;-71
2023/05/05 04:52:13;;;;;;;;;;;;;;;13.15;89.63;96601.94;5046304;28;19962;-71
2023/05/05 04:54:38;;;;;;;;;;;;;;;13.17;89.35;96601.72;5046736;28;19957;-83
2023/05/05 04:57:04;;;;;;;;;;;;;;;13.18;89.56;96601.47;5046342;28;20260;-70
2023/05/05 04:59:30;;;;;;;;;;;;;;;13.19;88.67;96595.19;5046635;28;19955;-69
2023/05/05 05:01:56;;;;;;;;;;;;;;;13.21;89.46;96600.25;5046336;28;20224;-69
2023/05/05 05:04:22;;;;;;;;;;;;;;;13.23;89.38;96600.00;5046277;28;20025;-70
2023/05/05 05:06:48;;;;;;;;;;;;;;;13.26;89.23;96604.81;5046578;28;19943;-69
2023/05/05 05:09:13;;;;;;;;;;;;;;;13.27;89.30;96601.13;5046060;28;20026;-69
2023/05/05 05:11:39;;;;;;;;;;;;;;;13.34;88.83;96599.22;5046064;28;20041;-72
2023/05/05 05:14:05;;;;;;;;;;;;;;;13.44;88.15;96595.97;5045796;28;19986;-72
2023/05/05 05:16:31;;;;;;;;;;;;;;;13.51;89.03;96608.00;5046017;28;19963;-72
2023/05/05 05:18:57;;;;;;;;;;;;;;;13.74;88.84;96604.50;5045758;28;20036;-73
2023/05/05 05:21:23;;;;;;;;;;;;;;;14.08;87.90;96603.81;5045977;28;19953;-72
2023/05/05 05:23:48;;;;;;;;;;;;;;;14.47;87.18;96596.88;5046022;28;19960;-72
2023/05/05 05:26:15;;;;;;;;;;;;;;;14.82;85.29;96591.38;5045784;28;19954;-72
2023/05/05 05:28:41;;;;;;;;;;;;;;;14.93;83.93;96588.88;5045819;28;19954;-72
2023/05/05 05:31:07;;;;;;;;;;;;;;;14.91;83.39;96583.84;5045945;28;19953;-85
2023/05/05 05:33:32;;;;;;;;;;;;;;;14.88;82.43;96599.38;5045851;28;19962;-70
2023/05/05 05:35:58;;;;;;;;;;;;;;;14.92;83.65;96603.13;5045925;28;19945;-70
2023/05/05 05:38:24;;;;;;;;;;;;;;;15.07;83.03;96584.06;5045398;28;19963;-70
2023/05/05 05:40:50;;;;;;;;;;;;;;;15.12;82.26;96584.94;5045242;28;20157;-71
2023/05/05 05:43:16;;;;;;;;;;;;;;;15.19;81.96;96590.84;5045097;28;20031;-71
2023/05/05 05:45:42;;;;;;;;;;;;;;;15.25;81.55;96585.66;5045307;28;20307;-71
2023/05/05 05:48:08;;;;;;;;;;;;;;;15.64;82.10;96586.38;5045477;28;19968;-72
2023/05/05 05:50:34;;;;;;;;;;;;;;;16.19;79.80;96582.78;5044332;28;19964;-89
2023/05/05 05:53:00;;;;;;;;;;;;;;;16.34;77.18;96579.47;5045566;28;20244;-89
2023/05/05 05:55:26;;;;;;;;;;;;;;;16.33;77.66;96582.38;5045848;28;19976;-91
2023/05/05 05:57:52;;;;;;;;;;;;;;;16.21;77.45;96585.16;5045993;28;20014;-90
2023/05/05 06:00:18;;;;;;;;;;;;;;;16.11;77.51;96588.53;5044478;28;19962;-91
2023/05/05 06:02:43;;;;;;;;;;;;;;;16.02;78.88;96608.53;5045623;28;19965;-93
2023/05/05 06:05:09;;;;;;;;;;;;;;;15.99;79.21;96607.19;5045706;28;19978;-88
2023/05/05 06:07:35;;;;;;;;;;;;;;;15.94;79.83;96603.69;5045435;28;20247;-71
2023/05/05 06:10:01;;;;;;;;;;;;;;;15.92;80.17;96606.59;5046579;28;20115;-72
2023/05/05 06:12:27;;;;;;;;;;;;;;;15.87;79.85;96605.72;5062877;28;19960;-72
2023/05/05 06:14:53;;;;;;;;;;;;;;;15.83;79.47;96615.97;5062777;28;20027;-72
2023/05/05 06:17:18;;;;;;;;;;;;;;;15.80;80.23;96611.19;5062618;28;20336;-72
2023/05/05 06:19:44;;;;;;;;;;;;;;;15.76;79.84;96607.44;5062962;28;19968;-71
2023/05/05 06:22:10;;;;;;;;;;;;;;;15.73;78.82;96600.03;5062588;28;20053;-72
2023/05/05 06:24:36;;;;;;;;;;;;;;;15.71;78.97;96604.72;5063053;28;20027;-72
2023/05/05 06:27:02;;;;;;;;;;;;;;;15.73;80.68;96610.59;5062715;28;19967;-71
2023/05/05 06:29:28;;;;;;;;;;;;;;;15.73;80.30;96610.59;5062649;28;19957;-71
2023/05/05 06:31:54;;;;;;;;;;;;;;;15.74;80.09;96605.03;5062689;28;20026;-71
2023/05/05 06:34:20;;;;;;;;;;;;;;;15.77;80.34;96609.03;5062390;28;20031;-71
2023/05/05 06:36:45;;;;;;;;;;;;;;;15.80;81.90;96619.91;5062636;28;20298;-70
2023/05/05 06:39:11;;;;;;;;;;;;;;;15.85;82.50;96623.69;5062960;28;20071;-70
2023/05/05 06:41:37;;;;;;;;;;;;;;;15.87;82.39;96622.38;5049343;28;19979;-71
2023/05/05 06:44:03;;;;;;;;;;;;;;;15.94;83.26;96619.56;5044608;28;19985;-70
2023/05/05 06:46:29;;;;;;;;;;;;;;;16.01;82.24;96618.31;5044631;28;19960;-69
2023/05/05 06:48:55;;;;;;;;;;;;;;;16.12;82.60;96627.16;5044198;28;19966;-69
2023/05/05 06:51:21;;;;;;;;;;;;;;;16.20;81.73;96615.34;5043310;28;20160;-70
2023/05/05 06:53:47;;;;;;;;;;;;;;;16.23;83.18;96620.13;5044513;28;19971;-69
2023/05/05 06:56:13;;;;;;;;;;;;;;;16.23;82.27;96613.00;5044332;28;20157;-71
2023/05/05 06:58:40;;;;;;;;;;;;;;;16.22;81.95;96614.03;5044406;28;20169;-71
2023/05/05 07:01:05;;;;;;;;;;;;;;;16.19;83.65;96633.06;5044322;28;19998;-71
2023/05/05 07:03:31;;;;;;;;;;;;;;;16.14;83.06;96632.19;5045066;28;20240;-82
2023/05/05 07:05:57;;;;;;;;;;;;;;;16.11;85.44;96640.66;5044223;28;19953;-92
2023/05/05 07:08:23;;;;;;;;;;;;;;;16.08;87.49;96654.34;5044705;28;19959;-87
2023/05/05 07:10:49;;;;;;;;;;;;;;;16.03;85.83;96647.97;5044387;28;20021;-87
2023/05/05 07:13:16;;;;;;;;;;;;;;;15.99;86.86;96649.50;5044186;28;19968;-87
2023/05/05 07:15:47;;;;;;;;;;;;;;;15.97;86.51;96653.44;5044620;28;20244;-88
2023/05/05 07:18:14;;;;;;;;;;;;;;;15.95;90.49;96658.97;5044151;28;19962;-88
2023/05/05 07:20:41;;;;;;;;;;;;;;;15.94;90.42;96656.59;5043793;28;19953;-71
2023/05/05 07:23:07;;;;;;;;;;;;;;;15.93;90.51;96666.34;5044162;28;20245;-88
2023/05/05 07:25:32;;;;;;;;;;;;;;;15.93;90.12;96663.72;5044570;28;20024;-91
2023/05/05 07:27:58;;;;;;;;;;;;;;;15.93;92.77;96673.50;5044099;28;19989;-88
2023/05/05 07:30:24;;;;;;;;;;;;;;;15.94;92.52;96667.97;5044006;28;20268;-89
2023/05/05 07:32:50;;;;;;;;;;;;;;;15.94;91.94;96665.31;5044248;28;19997;-89
2023/05/05 07:35:16;;;;;;;;;;;;;;;15.95;91.48;96666.91;5044045;28;19947;-90
2023/05/05 07:37:45;;;;;;;;;;;;;;;15.96;90.62;96657.16;5044367;28;19963;-88
2023/05/05 07:40:11;;;;;;;;;;;;;;;15.98;90.22;96658.50;5043671;28;19965;-72
2023/05/05 07:42:37;;;;;;;;;;;;;;;16.00;90.55;96659.06;5043442;28;19965;-70
2023/05/05 07:45:04;;;;;;;;;;;;;;;16.05;92.55;96673.38;5043510;28;19953;-70
2023/05/05 07:47:30;;;;;;;;;;;;;;;16.05;91.34;96662.81;5043770;28;19964;-71
2023/05/05 07:49:56;;;;;;;;;;;;;;;16.09;89.17;96659.41;5043672;28;19995;-70
2023/05/05 07:52:22;;;;;;;;;;;;;;;16.16;90.26;96661.84;5043600;28;19979;-70
2023/05/05 07:54:48;;;;;;;;;;;;;;;16.17;90.51;96666.91;5043487;28;19958;-70
2023/05/05 07:57:14;;;;;;;;;;;;;;;16.16;91.65;96665.28;5043863;28;20007;-72
2023/05/05 07:59:42;;;;;;;;;;;;;;;16.18;90.83;96665.06;5044017;28;19951;-70
2023/05/05 08:02:14;;;;;;;;;;;;;;;16.20;91.00;96663.75;5042505;28;20249;-70
2023/05/05 08:04:40;;;;;;;;;;;;;;;16.23;91.84;96668.56;5047197;28;19962;-69
2023/05/05 08:07:06;;;;;;;;;;;;;;;16.28;91.00;96665.16;5047558;28;19953;-70
2023/05/05 08:09:36;;;;;;;;;;;;;;;16.34;92.05;96668.69;5047374;28;19964;-69
2023/05/05 08:12:02;;;;;;;;;;;;;;;16.33;91.73;96662.56;5047027;28;19956;-69
2023/05/05 08:14:29;;;;;;;;;;;;;;;16.32;94.66;96662.84;5047327;28;19957;-70
2023/05/05 08:16:55;;;;;;;;;;;;;;;16.32;94.94;96671.56;5046916;28;19958;-72
2023/05/05 08:19:21;;;;;;;;;;;;;;;16.30;95.44;96662.28;5047107;28;19965;-71
2023/05/05 08:21:47;;;;;;;;;;;;;;;16.27;92.28;96660.13;5046942;28;19954;-71
2023/05/05 08:24:13;;;;;;;;;;;;;;;16.21;93.91;96654.78;5047008;28;19956;-71
2023/05/05 08:26:38;;;;;;;;;;;;;;;16.21;93.71;96654.78;5047112;28;20009;-72
2023/05/05 08:29:04;;;;;;;;;;;;;;;16.22;93.28;96650.28;5044730;28;19979;-71
2023/05/05 08:31:38;;;;;;;;;;;;;;;16.28;93.66;96651.16;5045345;28;19951;-72
2023/05/05 08:34:04;;;;;;;;;;;;;;;16.35;92.67;96646.44;5045139;28;19965;-72
2023/05/05 08:36:31;;;;;;;;;;;;;;;16.46;92.28;96644.69;5044973;28;20146;-87
2023/05/05 08:38:58;;;;;;;;;;;;;;;16.59;90.90;96652.25;5044700;28;19954;-83
2023/05/05 08:41:23;;;;;;;;;;;;;;;16.68;91.88;96656.03;5044865;28;19956;-88
2023/05/05 08:43:49;;;;;;;;;;;;;;;16.74;90.70;96656.88;5044453;28;20291;-88
2023/05/05 08:46:15;;;;;;;;;;;;;;;16.76;91.49;96662.72;5044651;28;20024;-89
2023/05/05 08:48:42;;;;;;;;;;;;;;;16.76;91.15;96665.38;5044602;28;20045;-89
2023/05/05 08:51:09;;;;;;;;;;;;;;;16.74;90.96;96657.66;5044567;28;20145;-89
2023/05/05 08:53:35;;;;;;;;;;;;;;;16.69;91.24;96659.47;5044333;28;19968;-72
2023/05/05 08:56:01;;;;;;;;;;;;;;;16.67;91.00;96654.41;5044344;28;19961;-68
2023/05/05 08:58:28;;;;;;;;;;;;;;;16.62;90.33;96655.16;5044060;28;20182;-67
2023/05/05 09:00:55;;;;;;;;;;;;;;;16.62;88.59;96657.03;5046037;28;19986;-67
2023/05/05 09:03:21;;;;;;;;;;;;;;;16.64;89.05;96654.94;5046027;28;20000;-67
2023/05/05 09:05:47;;;;;;;;;;;;;;;16.75;89.68;96664.53;5045929;28;19961;-67
2023/05/05 09:08:13;;;;;;;;;;;;;;;17.07;88.21;96649.72;5046203;28;20019;-66
2023/05/05 09:10:39;;;;;;;;;;;;;;;17.48;87.23;96637.53;5046052;28;20233;-67
2023/05/05 09:13:05;;;;;;;;;;;;;;;17.81;84.79;96620.47;5045934;28;19949;-68
2023/05/05 09:15:31;;;;;;;;;;;;;;;18.15;83.09;96612.09;5045303;28;19969;-70
2023/05/05 09:17:58;;;;;;;;;;;;;;;18.40;80.45;96605.25;5045673;28;19962;-70
2023/05/05 09:20:29;;;;;;;;;;;;;;;18.50;80.32;96612.41;5046033;28;19955;-70
2023/05/05 09:22:56;;;;;;;;;;;;;;;18.43;79.35;96608.16;5045957;28;19980;-72
2023/05/05 09:25:22;;;;;;;;;;;;;;;18.43;80.67;96618.78;5045732;28;19963;-71
2023/05/05 09:27:48;;;;;;;;;;;;;;;18.54;81.36;96613.47;5044974;28;20142;-72
2023/05/05 09:30:15;;;;;;;;;;;;;;;18.68;79.51;96593.31;5045255;28;19994;-84
2023/05/05 09:32:47;;;;;;;;;;;;;;;18.65;78.91;96599.94;5044921;28;20255;-72
2023/05/05 09:35:13;;;;;;;;;;;;;;;18.62;79.67;96604.97;5044432;28;19961;-71
2023/05/05 09:37:39;;;;;;;;;;;;;;;18.57;79.81;96603.13;5045572;28;20274;-71
2023/05/05 09:40:07;;;;;;;;;;;;;;;18.53;81.04;96610.03;5045208;28;19981;-71
2023/05/05 09:42:37;;;;;;;;;;;;;;;18.43;80.14;96599.41;5044995;28;20144;-71
2023/05/05 09:45:22;;;;;;;;;;;;;;;18.33;80.75;96607.34;5045626;28;20117;-71
2023/05/05 09:47:48;;;;;;;;;;;;;;;18.25;81.62;96606.03;5046094;28;19964;-71
2023/05/05 09:50:17;;;;;;;;;;;;;;;18.23;81.87;96610.81;5044887;28;19958;-71
2023/05/05 09:52:56;;;;;;;;;;;;;;;18.14;80.97;96605.22;5045080;28;19957;-73
2023/05/05 09:55:22;;;;;;;;;;;;;;;18.02;82.37;96609.94;5045142;28;19961;-72
2023/05/05 09:57:48;;;;;;;;;;;;;;;18.02;83.50;96610.75;5044737;28;19958;-71
2023/05/05 10:00:14;;;;;;;;;;;;;;;17.98;82.72;96612.31;5044908;28;20036;-71
2023/05/05 10:02:40;;;;;;;;;;;;;;;17.98;83.91;96620.28;5044654;28;20152;-71
2023/05/05 10:05:16;;;;;;;;;;;;;;;17.98;82.50;96611.53;5045020;28;20259;-73
2023/05/05 10:07:43;;;;;;;;;;;;;;;17.98;82.16;96606.22;5045076;28;19958;-68
2023/05/05 10:10:13;;;;;;;;;;;;;;;17.94;83.08;96618.41;5044977;28;20115;-77
2023/05/05 10:12:39;;;;;;;;;;;;;;;17.83;82.59;96604.31;5044308;28;19954;-78
2023/05/05 10:15:06;;;;;;;;;;;;;;;17.76;82.28;96607.16;5043751;28;19952;-78
2023/05/05 10:17:34;;;;;;;;;;;;;;;17.76;82.57;96607.16;5027192;28;20098;-80
2023/05/05 10:20:02;;;;;;;;;;;;;;;17.74;82.30;96606.63;5044543;28;19959;-78
2023/05/05 10:22:32;;;;;;;;;;;;;;;17.72;82.21;96605.28;5044546;28;19971;-79
2023/05/05 10:25:08;;;;;;;;;;;;;;;17.69;82.77;96609.25;5044476;28;19952;-69
2023/05/05 10:27:42;;;;;;;;;;;;;;;17.64;83.88;96596.00;5044053;28;20236;-69
2023/05/05 10:30:12;;;;;;;;;;;;;;;17.62;81.93;96583.00;5045339;28;19952;-70
2023/05/05 10:32:52;;;;;;;;;;;;;;;17.54;84.00;96596.75;5044695;28;19961;-69
2023/05/05 10:35:23;;;;;;;;;;;;;;;17.51;84.59;96591.16;5044135;28;19945;-70
2023/05/05 10:37:49;;;;;;;;;;;;;;;17.53;85.24;96597.00;5044490;28;19959;-70
2023/05/05 10:40:16;;;;;;;;;;;;;;;17.59;84.34;96588.00;5043708;28;19959;-71
2023/05/05 10:42:42;;;;;;;;;;;;;;;17.64;83.81;96580.09;5043845;28;19963;-71
2023/05/05 10:45:08;;;;;;;;;;;;;;;17.70;83.45;96580.88;5043197;28;20146;-72
2023/05/05 10:47:35;;;;;;;;;;;;;;;17.77;83.65;96576.94;5043152;28;20236;-72
2023/05/05 10:50:16;;;;;;;;;;;;;;;17.93;81.89;96569.03;5044091;28;20245;-72
2023/05/05 10:52:46;;;;;;;;;;;;;;;18.12;82.13;96558.72;5044192;28;19961;-72
2023/05/05 10:55:16;;;;;;;;;;;;;;;18.37;80.58;96545.50;5044443;28;20138;-73
2023/05/05 10:57:43;;;;;;;;;;;;;;;18.65;81.06;96549.47;5044363;28;19970;-73
2023/05/05 11:00:30;;;;;;;;;;;;;;;18.96;78.49;96530.06;5044253;28;19938;-80
2023/05/05 11:03:25;;;;;;;;;;;;;;;19.15;79.45;96531.09;5043829;28;19973;-74
2023/05/05 11:06:03;;;;;;;;;;;;;;;19.34;75.60;96503.88;5035487;28;20251;-74
2023/05/05 11:08:33;;;;;;;;;;;;;;;19.51;76.69;96509.69;5044286;28;19969;-73
2023/05/05 11:10:59;;;;;;;;;;;;;;;19.74;78.19;96520.75;5044317;28;20251;-73
2023/05/05 11:13:25;;;;;;;;;;;;;;;19.91;75.39;96502.56;5044163;28;19966;-74
2023/05/05 11:15:52;;;;;;;;;;;;;;;20.01;72.94;96488.38;5043746;28;19971;-73
2023/05/05 11:18:29;;;;;;;;;;;;;;;20.14;71.98;96484.28;5043215;28;20064;-73
2023/05/05 11:20:58;;;;;;;;;;;;;;;20.30;72.67;96493.75;5043874;28;20246;-67
2023/05/05 11:23:24;;;;;;;;;;;;;;;20.41;70.26;96479.28;5043972;28;19977;-72
2023/05/05 11:25:50;;;;;;;;;;;;;;;20.57;72.32;96485.25;5042638;28;19951;-72
2023/05/05 11:28:28;;;;;;;;;;;;;;;20.77;69.79;96470.22;5043495;28;19955;-68
2023/05/05 11:30:57;;;;;;;;;;;;;;;20.93;67.00;96458.28;5043320;28;19951;-68
2023/05/05 11:33:27;;;;;;;;;;;;;;;21.02;66.95;96461.94;5043821;28;19962;-68
2023/05/05 11:35:57;;;;;;;;;;;;;;;21.15;67.66;96468.44;5043792;28;19950;-69
2023/05/05 11:38:25;;;;;;;;;;;;;;;21.28;66.95;96466.94;5045371;28;19944;-68
2023/05/05 11:40:56;;;;;;;;;;;;;;;21.32;67.03;96470.63;5047082;28;19971;-80
2023/05/05 11:43:22;;;;;;;;;;;;;;;21.29;64.46;96458.66;5047037;28;19969;-80
2023/05/05 11:45:48;;;;;;;;;;;;;;;21.25;62.67;96456.84;5047149;28;19991;-79
2023/05/05 11:48:23;;;;;;;;;;;;;;;21.21;61.43;96453.19;5047366;28;19964;-91
2023/05/05 11:50:49;;;;;;;;;;;;;;;21.20;64.38;96463.03;5047295;28;20099;-91
2023/05/05 11:53:17;;;;;;;;;;;;;;;21.14;61.52;96452.72;5047436;28;19997;-90
2023/05/05 11:55:43;;;;;;;;;;;;;;;21.04;60.61;96453.63;5047548;28;19950;-72
2023/05/05 11:58:18;;;;;;;;;;;;;;;20.97;65.63;96469.97;5046252;28;19957;-73
2023/05/05 12:00:44;;;;;;;;;;;;;;;20.98;65.49;96470.78;5047412;28;20039;-72
2023/05/05 12:03:10;;;;;;;;;;;;;;;20.80;62.79;96458.97;5030051;28;19964;-73
2023/05/05 12:05:36;;;;;;;;;;;;;;;20.68;63.40;96457.50;5047242;28;19961;-72
2023/05/05 12:08:02;;;;;;;;;;;;;;;20.64;64.75;96458.31;5047417;28;20161;-73
2023/05/05 12:10:28;;;;;;;;;;;;;;;20.57;63.56;96450.63;5046689;28;20007;-72
2023/05/05 12:12:53;;;;;;;;;;;;;;;20.46;62.28;96446.50;5047272;28;20017;-72
2023/05/05 12:15:29;;;;;;;;;;;;;;;20.40;65.11;96450.28;5046828;28;19995;-72
2023/05/05 12:17:55;;;;;;;;;;;;;;;20.43;62.03;96444.38;5046826;28;19962;-71
2023/05/05 12:20:28;;;;;;;;;;;;;;;20.48;65.83;96461.09;5045815;28;20143;-72
2023/05/05 12:23:00;;;;;;;;;;;;;;;20.54;64.62;96456.53;5046937;28;20261;-68
2023/05/05 12:25:33;;;;;;;;;;;;;;;20.62;66.67;96458.63;5047006;28;19962;-68
2023/05/05 12:27:59;;;;;;;;;;;;;;;20.62;66.14;96452.47;5046185;28;19956;-69
2023/05/05 12:30:24;;;;;;;;;;;;;;;20.65;65.58;96444.72;5046430;28;19949;-69
2023/05/05 12:32:59;;;;;;;;;;;;;;;20.70;62.39;96432.41;5046830;28;19955;-91
2023/05/05 12:35:25;;;;;;;;;;;;;;;20.90;65.99;96444.75;5046293;28;19960;-86
2023/05/05 12:37:50;;;;;;;;;;;;;;;21.04;63.97;96426.97;5046519;28;20265;-90
2023/05/05 12:40:35;;;;;;;;;;;;;;;21.08;61.02;96417.31;5046420;28;19995;-89
2023/05/05 12:43:01;;;;;;;;;;;;;;;21.20;63.48;96423.03;5046625;28;20013;-90
2023/05/05 12:45:27;;;;;;;;;;;;;;;21.27;63.38;96423.47;5046770;28;19961;-88
2023/05/05 12:47:53;;;;;;;;;;;;;;;21.28;58.84;96398.38;5046696;28;19958;-89
2023/05/05 12:50:28;;;;;;;;;;;;;;;21.31;61.63;96405.00;5045235;28;19944;-89